Terminal Aerodrome Forecast
Issued by NWS Wilmington, NC

Home | Current Version | Previous Version | Text Only | Print | Product List | Glossary On
Versions: 1 2 3 4 5 6 7 8 9 10 11 12 13 14 15 16 17 18 19 20
498
FTUS42 KILM 071721
TAFFLO
TAF
KFLO 071721Z 0718/0818 02004KT P6SM SKC
     FM080600 00000KT P6SM BKN020
     FM081200 22002KT 2SM BR OVC020
     FM081300 26007KT P6SM BKN020=

USA.gov is the U.S. government's official web portal to all federal, state and local government web resources and services.